Beron de Astrada, Argentina
Current Conditions -  °F | °C
As of 5:00 PM on Monday 24 Nov 2014 (Local Time) from SARC Reporting Station
Scattered Clouds Scattered Clouds  
Wind Chill: 93°   Ceiling: Unl
Heat Index: 97°   Visibility: 6mi
Dew Point: 68°   Wind: 15mph
Humidity: 44%   Direction: 50°NE
Pressure: 29.62"   Gusts: NA
Location:  27.55°S, 57.53°W
Report Text: SARC 242000Z 05013KT 9999 SCT027 34/20 Q1003
Loading
Personal Weather Stations






























Interactive Weather Map New forecast layout! Learn more

10-Day Weather Forecast

Advertisements
Track Severe Weather on mobile